Flight Track Log - Related Links

Times and Time Zones

All times are in EDT time to prevent confusion due to time zone crossing. See the TAM3751 flight status page for this flight to view local times or setup timezone preferences in your user account.

Time Position Orientation Groundspeed Altitude Reporting Facility
EDT Latitude Longitude Course Direction KTS MPH feet Rate Location/Type
Mon 12:29:27 AM -3.0390 -60.0280 90° East 164 189 1,100  Level FlightAware ADS-B
Mon 12:29:38 AM -3.0390 -60.0190 90° East 174 200 1,400 1,200 Climbing FlightAware ADS-B
Mon 12:30:22 AM -3.0410 -59.9790 93° East 225 259 2,200 1,179 Climbing FlightAware ADS-B
Mon 12:30:34 AM -3.0490 -59.9680 126° Southeast 246 283 2,500 1,929 Climbing FlightAware ADS-B
Mon 12:30:50 AM -3.0660 -59.9590 152° Southeast 254 292 3,100 2,143 Climbing FlightAware ADS-B
Mon 12:31:02 AM -3.0780 -59.9530 153° Southeast 260 299 3,500 2,550 Climbing FlightAware ADS-B
Mon 12:31:30 AM -3.1100 -59.9400 158° South 265 305 4,800 2,786 Climbing FlightAware ADS-B
Mon 12:31:58 AM -3.1420 -59.9260 156° South 267 307 6,100 2,679 Climbing FlightAware ADS-B
Mon 12:32:26 AM -3.1710 -59.9070 147° Southeast 266 306 7,300 2,357 Climbing FlightAware ADS-B
Mon 12:32:54 AM -3.2000 -59.8860 144° Southeast 279 321 8,300 2,143 Climbing FlightAware ADS-B
Mon 12:33:22 AM -3.2290 -59.8640 143° Southeast 288 331 9,300 2,182 Climbing FlightAware ADS-B
Mon 12:33:38 AM -3.2470 -59.8510 144° Southeast 291 335 9,900 2,421 Climbing FlightAware ADS-B
Mon 12:34:19 AM -3.2890 -59.8160 140° Southeast 290 334 11,600 2,302 Climbing FlightAware ADS-B
Mon 12:35:04 AM -3.3340 -59.7750 138° Southeast 295 339 13,200 2,047 Climbing FlightAware ADS-B
Mon 12:35:44 AM -3.3720 -59.7350 134° Southeast 306 352 14,500 1,357 Climbing FlightAware ADS-B
Mon 12:36:28 AM -3.4170 -59.6860 133° Southeast 341 392 15,100 878 Climbing FlightAware ADS-B
Mon 12:37:06 AM -3.4590 -59.6390 132° Southeast 368 423 15,700 1,500 Climbing FlightAware ADS-B
Mon 12:37:52 AM -3.5050 -59.5740 125° Southeast 373 429 17,200 2,442 Climbing FlightAware ADS-B
Mon 12:38:32 AM -3.5400 -59.5160 121° Southeast 349 402 19,200 2,727 Climbing FlightAware ADS-B
Mon 12:38:58 AM -3.5690 -59.4890 137° Southeast 345 397 20,200 1,773 Climbing FlightAware ADS-B
Mon 12:39:16 AM -3.5970 -59.4790 160° South 356 410 20,500 1,821 Climbing FlightAware ADS-B
Mon 12:39:54 AM -3.6590 -59.4670 169° South 346 398 21,900 1,800 Climbing FlightAware ADS-B
Mon 12:40:36 AM -3.7260 -59.4530 168° South 349 402 22,900 1,465 Climbing FlightAware ADS-B
Mon 12:41:20 AM -3.7930 -59.4380 167° South 347 399 24,000 1,159 Climbing FlightAware ADS-B
Mon 12:42:04 AM -3.8660 -59.4210 167° South 364 419 24,600 714 Climbing FlightAware ADS-B
Mon 12:42:44 AM -3.9320 -59.4050 166° South 380 437 25,000 608 Climbing FlightAware ADS-B
Mon 12:43:23 AM -3.9950 -59.3750 155° Southeast 392 451 25,400 400 Climbing FlightAware ADS-B
Mon 12:44:14 AM -4.0710 -59.3360 153° Southeast 401 461 25,600 121 Climbing FlightAware ADS-B
Mon 12:45:02 AM -4.1390 -59.3010 153° Southeast 401 461 25,600  Level FlightAware ADS-B
Mon 12:46:02 AM -4.2230 -59.2580 153° Southeast 401 461 25,600  Level FlightAware ADS-B
Mon 12:46:38 AM -4.2740 -59.2330 154° Southeast 401 461 25,600  Level FlightAware ADS-B
Mon 12:47:26 AM -4.3410 -59.1980 152° Southeast 401 461 25,600 93 Level FlightAware ADS-B
Mon 12:50:00 AM -4.5821 -59.0493 148° Southeast  Level Estimated
Mon 12:51:00 AM -4.6760 -58.9913 148° Southeast  Level Estimated
Mon 12:52:00 AM -4.7699 -58.9333 148° Southeast  Level Estimated
Mon 12:53:00 AM -4.8638 -58.8753 148° Southeast  Level Estimated
Mon 12:54:00 AM -4.9577 -58.8173 148° Southeast  Level Estimated
Mon 12:55:00 AM -5.0517 -58.7593 148° Southeast  Level Estimated
Mon 12:56:00 AM -5.1455 -58.7012 148° Southeast  Level Estimated
Mon 12:57:00 AM -5.2394 -58.6431 148° Southeast  Level Estimated
Mon 12:58:00 AM -5.3333 -58.5850 148° Southeast  Level Estimated
Mon 12:59:00 AM -5.4272 -58.5270 148° Southeast  Level Estimated
Mon 01:00:00 AM -5.5211 -58.4688 148° Southeast  Level Estimated
Mon 01:01:00 AM -5.6150 -58.4107 148° Southeast  Level Estimated
Mon 01:02:00 AM -5.7088 -58.3525 148° Southeast  Level Estimated
Mon 01:03:00 AM -5.8027 -58.2943 148° Southeast  Level Estimated
Mon 01:04:00 AM -5.8965 -58.2361 148° Southeast  Level Estimated
Mon 01:05:00 AM -5.9904 -58.1779 148° Southeast  Level Estimated
Mon 01:06:00 AM -6.0842 -58.1197 148° Southeast  Level Estimated
Mon 01:07:00 AM -6.1781 -58.0614 148° Southeast  Level Estimated
Mon 01:08:00 AM -6.2719 -58.0032 148° Southeast  Level Estimated
Mon 01:09:00 AM -6.3657 -57.9449 148° Southeast  Level Estimated
Mon 01:10:00 AM -6.4595 -57.8865 148° Southeast  Level Estimated
Mon 01:11:00 AM -6.5533 -57.8282 148° Southeast  Level Estimated
Mon 01:12:00 AM -6.6471 -57.7698 148° Southeast  Level Estimated
Mon 01:13:00 AM -6.7409 -57.7114 148° Southeast  Level Estimated
Mon 01:14:00 AM -6.8347 -57.6530 148° Southeast  Level Estimated
Mon 01:15:00 AM -6.9285 -57.5946 148° Southeast  Level Estimated
Mon 01:16:00 AM -7.0223 -57.5361 148° Southeast  Level Estimated
Mon 01:17:00 AM -7.1160 -57.4776 148° Southeast  Level Estimated
Mon 01:18:00 AM -7.2098 -57.4192 148° Southeast  Level Estimated
Mon 01:19:00 AM -7.3035 -57.3606 148° Southeast  Level Estimated
Mon 01:20:00 AM -7.3973 -57.3021 148° Southeast  Level Estimated
Mon 01:21:00 AM -7.4910 -57.2435 148° Southeast  Level Estimated
Mon 01:22:00 AM -7.5847 -57.1849 148° Southeast  Level Estimated
Mon 01:23:00 AM -7.6785 -57.1263 148° Southeast  Level Estimated
Mon 01:24:00 AM -7.7722 -57.0676 148° Southeast  Level Estimated
Mon 01:25:00 AM -7.8659 -57.0089 148° Southeast  Level Estimated
Mon 01:26:00 AM -7.9596 -56.9502 148° Southeast  Level Estimated
Mon 01:27:00 AM -8.0533 -56.8915 148° Southeast  Level Estimated
Mon 01:28:00 AM -8.1469 -56.8327 148° Southeast  Level Estimated
Mon 01:29:00 AM -8.2406 -56.7739 148° Southeast  Level Estimated
Mon 01:30:00 AM -8.3343 -56.7151 148° Southeast  Level Estimated
Mon 01:31:00 AM -8.4279 -56.6563 148° Southeast  Level Estimated
Mon 01:32:00 AM -8.5216 -56.5974 148° Southeast  Level Estimated
Mon 01:33:00 AM -8.6152 -56.5385 148° Southeast  Level Estimated
Mon 01:34:00 AM -8.7088 -56.4796 148° Southeast  Level Estimated
Mon 01:35:00 AM -8.8025 -56.4206 148° Southeast  Level Estimated
Mon 01:36:00 AM -8.8961 -56.3616 148° Southeast  Level Estimated
Mon 01:37:00 AM -8.9897 -56.3026 148° Southeast  Level Estimated
Mon 01:38:00 AM -9.0833 -56.2436 148° Southeast  Level Estimated
Mon 01:39:00 AM -9.1768 -56.1845 148° Southeast  Level Estimated
Mon 01:40:00 AM -9.2704 -56.1254 148° Southeast  Level Estimated
Mon 01:41:00 AM -9.3640 -56.0662 148° Southeast  Level Estimated
Mon 01:42:00 AM -9.4575 -56.0070 148° Southeast  Level Estimated
Mon 01:43:00 AM -9.5511 -55.9478 148° Southeast  Level Estimated
Mon 01:44:00 AM -9.6446 -55.8886 148° Southeast  Level Estimated
Mon 01:45:00 AM -9.7381 -55.8293 148° Southeast  Level Estimated
Mon 01:46:00 AM -9.8316 -55.7700 148° Southeast  Level Estimated
Mon 01:47:00 AM -9.9251 -55.7107 148° Southeast  Level Estimated
Mon 01:48:00 AM -10.0186 -55.6513 148° Southeast  Level Estimated
Mon 01:49:00 AM -10.1121 -55.5919 148° Southeast  Level Estimated
Mon 01:50:00 AM -10.2056 -55.5325 148° Southeast  Level Estimated
Mon 01:51:00 AM -10.2990 -55.4730 148° Southeast  Level Estimated
Mon 01:52:00 AM -10.3925 -55.4135 148° Southeast  Level Estimated
Mon 01:53:00 AM -10.4859 -55.3539 148° Southeast  Level Estimated
Mon 01:54:00 AM -10.5793 -55.2943 148° Southeast  Level Estimated
Mon 01:55:00 AM -10.6727 -55.2347 148° Southeast  Level Estimated
Mon 01:56:00 AM -10.7661 -55.1750 148° Southeast  Level Estimated
Mon 01:57:00 AM -10.8595 -55.1153 148° Southeast  Level Estimated
Mon 01:58:00 AM -10.9529 -55.0556 148° Southeast  Level Estimated
Mon 01:59:00 AM -11.0463 -54.9958 148° Southeast  Level Estimated
Mon 02:00:00 AM -11.1396 -54.9360 148° Southeast  Level Estimated
Mon 02:01:00 AM -11.2330 -54.8762 148° Southeast  Level Estimated
Mon 02:02:00 AM -11.3263 -54.8163 148° Southeast  Level Estimated
Mon 02:03:00 AM -11.4196 -54.7564 148° Southeast  Level Estimated
Mon 02:04:00 AM -11.5129 -54.6964 148° Southeast  Level Estimated
Mon 02:05:00 AM -11.6062 -54.6364 148° Southeast  Level Estimated
Mon 02:06:00 AM -11.6995 -54.5764 148° Southeast  Level Estimated
Mon 02:07:00 AM -11.7928 -54.5163 148° Southeast  Level Estimated
Mon 02:08:00 AM -11.8861 -54.4562 148° Southeast  Level Estimated
Mon 02:09:00 AM -11.9793 -54.3960 148° Southeast  Level Estimated
Mon 02:10:00 AM -12.0725 -54.3358 148° Southeast  Level Estimated
Mon 02:11:00 AM -12.1657 -54.2755 148° Southeast  Level Estimated
Mon 02:12:00 AM -12.2590 -54.2152 148° Southeast  Level Estimated
Mon 02:13:00 AM -12.3521 -54.1549 148° Southeast  Level Estimated
Mon 02:14:00 AM -12.4453 -54.0945 148° Southeast  Level Estimated
Mon 02:15:00 AM -12.5385 -54.0341 148° Southeast  Level Estimated
Mon 02:16:00 AM -12.6316 -53.9737 148° Southeast  Level Estimated
Mon 02:17:00 AM -12.7248 -53.9132 148° Southeast  Level Estimated
Mon 02:18:00 AM -12.8179 -53.8526 148° Southeast  Level Estimated
Mon 02:19:00 AM -12.9110 -53.7920 148° Southeast  Level Estimated
Mon 02:20:00 AM -13.0041 -53.7314 148° Southeast  Level Estimated
Mon 02:21:00 AM -13.0972 -53.6707 148° Southeast  Level Estimated
Mon 02:22:00 AM -13.1903 -53.6099 148° Southeast  Level Estimated
Mon 02:23:00 AM -13.2833 -53.5492 148° Southeast  Level Estimated
Mon 02:24:00 AM -13.3764 -53.4883 148° Southeast  Level Estimated
Mon 02:25:00 AM -13.4694 -53.4275 148° Southeast  Level Estimated
Mon 02:26:00 AM -13.5624 -53.3665 148° Southeast  Level Estimated
Mon 02:27:00 AM -13.6554 -53.3056 148° Southeast  Level Estimated
Mon 02:28:00 AM -13.7484 -53.2445 147° Southeast  Level Estimated
Mon 02:29:00 AM -13.8414 -53.1835 147° Southeast  Level Estimated
Mon 02:30:00 AM -13.9343 -53.1224 147° Southeast  Level Estimated
Mon 02:31:00 AM -14.0273 -53.0612 147° Southeast  Level Estimated
Mon 02:32:00 AM -14.1202 -53.0000 147° Southeast  Level Estimated
Mon 02:33:00 AM -14.2131 -52.9387 147° Southeast  Level Estimated
Mon 02:34:00 AM -14.3060 -52.8774 147° Southeast  Level Estimated
Mon 02:35:00 AM -14.3989 -52.8161 147° Southeast  Level Estimated
Mon 02:36:00 AM -14.4917 -52.7546 147° Southeast  Level Estimated
Mon 02:37:00 AM -14.5846 -52.6932 147° Southeast  Level Estimated
Mon 02:38:00 AM -14.6774 -52.6316 147° Southeast  Level Estimated
Mon 02:39:00 AM -14.7702 -52.5701 147° Southeast  Level Estimated
Mon 02:40:00 AM -14.8630 -52.5085 147° Southeast  Level Estimated
Mon 02:41:00 AM -14.9558 -52.4468 147° Southeast  Level Estimated
Mon 02:42:00 AM -15.0485 -52.3851 147° Southeast  Level Estimated
Mon 02:43:00 AM -15.1413 -52.3233 147° Southeast  Level Estimated
Mon 02:44:00 AM -15.2340 -52.2614 147° Southeast  Level Estimated
Mon 02:45:00 AM -15.3267 -52.1995 147° Southeast  Level Estimated
Mon 02:46:00 AM -15.4194 -52.1376 147° Southeast  Level Estimated
Mon 02:47:00 AM -15.5121 -52.0756 147° Southeast  Level Estimated
Mon 02:48:00 AM -15.6047 -52.0135 147° Southeast  Level Estimated
Mon 02:48:45 AM -18.1300 -50.5790 147° Southeast 495 570 37,000  Level FlightAware ADS-B
Mon 02:49:00 AM -15.6974 -51.9514 147° Southeast  Level Estimated
Mon 02:49:24 AM -18.2010 -50.5230 143° Southeast 496 571 37,000  Level FlightAware ADS-B
Mon 02:50:09 AM -18.2840 -50.4560 143° Southeast 497 572 37,000  Level FlightAware ADS-B
Mon 02:50:50 AM -18.3470 -50.4050 142° Southeast 497 572 37,000  Level FlightAware ADS-B
Mon 02:51:26 AM -18.4020 -50.3590 142° Southeast 497 572 37,000  Level FlightAware ADS-B
Mon 02:52:14 AM -18.4760 -50.2980 142° Southeast 497 572 37,000  Level FlightAware ADS-B
Mon 02:53:10 AM -18.6070 -50.1950 143° Southeast 497 572 37,000  Level FlightAware ADS-B
Mon 02:53:52 AM -18.6890 -50.1290 143° Southeast 497 572 37,000  Level FlightAware ADS-B
Mon 02:54:33 AM -18.7650 -50.0680 143° Southeast 498 573 37,000  Level FlightAware ADS-B
Mon 02:55:13 AM -18.8360 -50.0100 142° Southeast 498 573 37,000  Level FlightAware ADS-B
Mon 02:55:59 AM -18.9230 -49.9400 143° Southeast 497 572 37,000  Level FlightAware ADS-B
Mon 02:56:39 AM -18.9960 -49.8800 142° Southeast 496 571 37,000  Level FlightAware ADS-B
Mon 02:57:19 AM -19.0700 -49.8200 143° Southeast 496 571 37,000  Level FlightAware ADS-B
Mon 02:58:05 AM -19.1540 -49.7520 143° Southeast 496 571 37,000  Level FlightAware ADS-B
Mon 02:58:45 AM -19.2260 -49.6920 142° Southeast 497 572 37,000  Level FlightAware ADS-B
Mon 02:59:29 AM -19.3030 -49.6260 141° Southeast 498 573 37,000  Level FlightAware ADS-B
Mon 03:00:09 AM -19.3780 -49.5640 142° Southeast 497 572 37,000  Level FlightAware ADS-B
Mon 03:00:51 AM -19.4530 -49.5010 142° Southeast 498 573 37,000  Level FlightAware ADS-B
Mon 03:01:35 AM -19.5340 -49.4370 143° Southeast 494 568 37,000  Level FlightAware ADS-B
Mon 03:02:15 AM -19.6090 -49.3830 146° Southeast 494 568 37,000  Level FlightAware ADS-B
Mon 03:02:59 AM -19.6920 -49.3210 145° Southeast 495 570 37,000  Level FlightAware ADS-B
Mon 03:03:39 AM -19.7660 -49.2650 145° Southeast 494 568 37,000  Level FlightAware ADS-B
Mon 03:04:24 AM -19.8500 -49.2020 145° Southeast 493 567 37,000  Level FlightAware ADS-B
Mon 03:04:57 AM -19.9130 -49.1550 145° Southeast 492 566 37,000  Level FlightAware ADS-B
Mon 03:05:47 AM -20.0050 -49.0850 144° Southeast 490 564 37,000  Level FlightAware ADS-B
Mon 03:06:27 AM -20.0790 -49.0290 145° Southeast 488 562 37,000  Level FlightAware ADS-B
Mon 03:07:11 AM -20.1610 -48.9670 145° Southeast 486 559 37,000  Level FlightAware ADS-B
Mon 03:07:51 AM -20.2340 -48.9120 145° Southeast 484 557 37,000  Level FlightAware ADS-B
Mon 03:08:35 AM -20.3140 -48.8510 144° Southeast 483 556 37,000  Level FlightAware ADS-B
Mon 03:09:15 AM -20.3870 -48.7950 144° Southeast 484 557 37,000  Level FlightAware ADS-B
Mon 03:09:59 AM -20.4680 -48.7340 145° Southeast 485 558 37,000  Level FlightAware ADS-B
Mon 03:10:41 AM -20.5450 -48.6750 144° Southeast 487 560 37,000  Level FlightAware ADS-B
Mon 03:11:21 AM -20.6170 -48.6200 144° Southeast 489 563 37,000  Level FlightAware ADS-B
Mon 03:12:03 AM -20.6950 -48.5610 145° Southeast 490 564 37,000 71 Level FlightAware ADS-B
Mon 03:12:45 AM -20.7710 -48.5030 144° Southeast 490 564 37,100 70 Climbing FlightAware ADS-B
Mon 03:13:29 AM -20.8550 -48.4380 144° Southeast 490 564 37,100 -73 Level FlightAware ADS-B
Mon 03:14:07 AM -20.9240 -48.3850 144° Southeast 489 563 37,000 -71 Descending FlightAware ADS-B
Mon 03:14:53 AM -21.0070 -48.3210 144° Southeast 490 564 37,000  Level FlightAware ADS-B
Mon 03:15:33 AM -21.0830 -48.2630 145° Southeast 489 563 37,000  Level FlightAware ADS-B
Mon 03:16:17 AM -21.1630 -48.2010 144° Southeast 489 563 37,000  Level FlightAware ADS-B
Mon 03:16:57 AM -21.2380 -48.1440 145° Southeast 490 564 37,000  Level FlightAware ADS-B
Mon 03:17:41 AM -21.3190 -48.0800 144° Southeast 491 565 37,000  Level FlightAware ADS-B
Mon 03:18:21 AM -21.3930 -48.0230 144° Southeast 490 564 37,000  Level FlightAware ADS-B
Mon 03:19:01 AM -21.4660 -47.9670 144° Southeast 489 563 37,000  Level FlightAware ADS-B
Mon 03:19:46 AM -21.5470 -47.9040 144° Southeast 487 560 37,000  Level FlightAware ADS-B
Mon 03:20:27 AM -21.6220 -47.8460 144° Southeast 485 558 37,000  Level FlightAware ADS-B
Mon 03:21:06 AM -21.6930 -47.7900 144° Southeast 484 557 37,000  Level FlightAware ADS-B
Mon 03:21:50 AM -21.7750 -47.7270 144° Southeast 483 556 37,000  Level FlightAware ADS-B
Mon 03:22:34 AM -21.8540 -47.6650 144° Southeast 483 556 37,000 -1,116 Level FlightAware ADS-B
Mon 03:23:16 AM -21.9320 -47.6050 144° Southeast 500 575 35,400 -2,372 Descending FlightAware ADS-B
Mon 03:24:00 AM -22.0140 -47.5400 144° Southeast 497 572 33,600 -2,415 Descending FlightAware ADS-B
Mon 03:24:38 AM -22.0850 -47.4850 144° Southeast 491 565 32,100 -2,475 Descending FlightAware ADS-B
Mon 03:25:20 AM -22.1610 -47.4250 144° Southeast 490 564 30,300 -2,386 Descending FlightAware ADS-B
Mon 03:26:06 AM -22.2450 -47.3590 144° Southeast 478 550 28,600 -2,302 Descending FlightAware ADS-B
Mon 03:26:46 AM -22.3160 -47.3030 144° Southeast 468 539 27,000 -2,241 Descending FlightAware ADS-B
Mon 03:27:29 AM -22.3900 -47.2450 144° Southeast 458 527 25,500 -2,241 Descending FlightAware ADS-B
Mon 03:28:09 AM -22.4590 -47.1900 144° Southeast 449 517 23,900 -2,286 Descending FlightAware ADS-B
Mon 03:28:53 AM -22.5310 -47.1340 144° Southeast 442 509 22,300 -2,286 Descending FlightAware ADS-B
Mon 03:29:33 AM -22.6010 -47.0870 148° Southeast 427 491 20,700 -2,308 Descending FlightAware ADS-B
Mon 03:30:11 AM -22.6700 -47.0580 159° South 422 486 19,300 -2,214 Descending FlightAware ADS-B
Mon 03:30:57 AM -22.7530 -47.0240 159° South 416 479 17,600 -2,200 Descending FlightAware ADS-B
Mon 03:31:41 AM -22.8320 -46.9900 158° South 406 467 16,000 -2,143 Descending FlightAware ADS-B
Mon 03:32:21 AM -22.9000 -46.9620 159° South 395 455 14,600 -2,429 Descending FlightAware ADS-B
Mon 03:33:05 AM -22.9730 -46.9310 159° South 379 436 12,600 -2,188 Descending FlightAware ADS-B
Mon 03:33:46 AM -23.0380 -46.9040 159° South 338 389 11,500 -1,390 Descending FlightAware ADS-B
Mon 03:34:27 AM -23.0940 -46.8800 158° South 292 336 10,700 -1,059 Descending FlightAware ADS-B
Mon 03:35:11 AM -23.1480 -46.8580 159° South 275 316 10,000 -833 Descending FlightAware ADS-B
Mon 03:35:39 AM -23.1790 -46.8450 159° South 260 299 9,700 -750 Descending FlightAware ADS-B
Mon 03:36:07 AM -23.2100 -46.8310 157° South 251 289 9,300 -1,179 Descending FlightAware ADS-B
Mon 03:36:35 AM -23.2420 -46.8180 160° South 258 297 8,600 -1,500 Descending FlightAware ADS-B
Mon 03:37:03 AM -23.2730 -46.8050 159° South 262 302 7,900 -1,393 Descending FlightAware ADS-B
Mon 03:37:31 AM -23.3060 -46.7910 159° South 261 300 7,300 -1,111 Descending FlightAware ADS-B
Mon 03:37:57 AM -23.3340 -46.7790 159° South 256 295 6,900 -436 Descending FlightAware ADS-B
Mon 03:38:26 AM -23.3640 -46.7660 158° South 239 275 6,900 -517 Level FlightAware ADS-B
Mon 03:38:55 AM -23.3910 -46.7460 146° Southeast 241 277 6,400 -1,053 Descending FlightAware ADS-B
Mon 03:39:23 AM -23.4150 -46.7230 139° Southeast 242 278 5,900 -1,179 Descending FlightAware ADS-B
Mon 03:39:51 AM -23.4390 -46.7000 139° Southeast 241 277 5,300 -1,154 Descending FlightAware ADS-B
Mon 03:40:15 AM -23.4550 -46.6790 130° Southeast 232 267 4,900 -857 Descending FlightAware ADS-B
Mon 03:40:33 AM -23.4620 -46.6600 112° Southeast 215 247 4,700 -409 Descending FlightAware ADS-B
Mon 03:40:59 AM -23.4720 -46.6350 114° Southeast 195 224 4,600 -158 Descending FlightAware ADS-B
Mon 03:41:11 AM -23.4740 -46.6250 102° East 179 206 4,600 -286 Level FlightAware ADS-B
Mon 03:41:41 AM -23.4690 -46.5990 78° East 164 189 4,400 -724 Descending FlightAware ADS-B
Mon 03:42:09 AM -23.4630 -46.5780 73° East 156 180 3,900 -857 Descending FlightAware ADS-B
Mon 03:42:37 AM -23.4580 -46.5570 75° East 142 163 3,600 -655 Descending FlightAware ADS-B
Mon 03:43:04 AM -23.4530 -46.5390 73° East 144 166 3,300 -808 Descending FlightAware ADS-B
Mon 03:43:29 AM -23.4480 -46.5210 73° East 144 166 2,900 -778 Descending FlightAware ADS-B
Mon 03:43:58 AM -23.4430 -46.5030 73° East 140 161 2,600 -610 Descending FlightAware ADS-B
Mon 03:44:28 AM -23.4370 -46.4820 73° East 135 155 2,300 -600 Descending FlightAware ADS-B
Mon 03:44:43 AM -23.4350 -46.4750 73° East 65 75 -9,200 Descending FlightAware ADS-B
Mon 03:45:13 AM -23.4340 -46.4700 78° East 30 35  Level FlightAware ADS-B
Mon 03:45:18 AM -23.4330 -46.4690 43° Northeast 30 35  Level FlightAware ADS-B
Mon 03:46:23 AM -23.4290 -46.4680 13° North 11 13  Level FlightAware ADS-B
Mon 03:46:33 AM -23.4280 -46.4680 360° North 12 14  Level FlightAware ADS-B
Mon 03:46:58 AM -23.4290 -46.4700 241° Southwest 12 14  Level FlightAware ADS-B
Mon 03:47:29 AM -23.4290 -46.4720 270° West 13 15  Level FlightAware ADS-B
Mon 03:47:58 AM -23.4300 -46.4740 241° Southwest 16 18  Level FlightAware ADS-B
Mon 03:49:08 AM -23.4300 -46.4780 270° West 13 15  Level FlightAware ADS-B
Mon 03:49:38 AM -23.4290 -46.4780 360° North 11 13  Level FlightAware ADS-B
Mon 03:50:18 AM -23.4280 -46.4780 360° North 4 5  Level FlightAware ADS-B
Mon 03:52:00 AM -23.4321 -46.4695 118° Southeast  Level Estimated
Mon 03:53:00 AM -23.4321 -46.4695 350° North  Level Estimated
Mon 03:54:00 AM -23.4321 -46.4695 350° North  Level Estimated
Mon 03:55:00 AM -23.4321 -46.4695 350° North  Level Estimated
Mon 03:56:00 AM -23.4321 -46.4695 350° North  Level Estimated
Mon 03:57:00 AM -23.4321 -46.4695 350° North  Level Estimated
Mon 03:58:00 AM -23.4321 -46.4695 350° North  Level Estimated
Mon 03:59:00 AM -23.4321 -46.4695 350° North  Level Estimated

Login

Don't have an account? Register now (free) for customized features, flight alerts, and more!